sensor_id;sensor_type;location;lat;lon;timestamp;pressure;altitude;pressure_sealevel;temperature;humidity
64080;BME280;51042;49.696;10.808;2023-01-29T00:02:17;99642.63;;;-2.69;78.62
64080;BME280;51042;49.696;10.808;2023-01-29T00:04:43;99636.16;;;-2.68;77.98
64080;BME280;51042;49.696;10.808;2023-01-29T00:07:08;99636.16;;;-2.68;78.24
64080;BME280;51042;49.696;10.808;2023-01-29T00:09:33;99635.19;;;-2.72;78.32
64080;BME280;51042;49.696;10.808;2023-01-29T00:11:58;99634.72;;;-2.74;78.79
64080;BME280;51042;49.696;10.808;2023-01-29T00:14:24;99639.94;;;-2.78;78.88
64080;BME280;51042;49.696;10.808;2023-01-29T00:16:51;99627.31;;;-2.86;79.11
64080;BME280;51042;49.696;10.808;2023-01-29T00:19:16;99632.34;;;-2.84;79.51
64080;BME280;51042;49.696;10.808;2023-01-29T00:21:41;99632.50;;;-2.81;79.26
64080;BME280;51042;49.696;10.808;2023-01-29T00:24:07;99632.03;;;-2.74;79.50
64080;BME280;51042;49.696;10.808;2023-01-29T00:26:32;99631.09;;;-2.70;79.34
64080;BME280;51042;49.696;10.808;2023-01-29T00:28:57;99627.31;;;-2.69;79.15
64080;BME280;51042;49.696;10.808;2023-01-29T00:31:24;99631.41;;;-2.63;79.70
64080;BME280;51042;49.696;10.808;2023-01-29T00:33:50;99629.81;;;-2.64;78.20
64080;BME280;51042;49.696;10.808;2023-01-29T00:36:16;99632.81;;;-2.65;78.30
64080;BME280;51042;49.696;10.808;2023-01-29T00:38:42;99631.09;;;-2.70;78.61
64080;BME280;51042;49.696;10.808;2023-01-29T00:41:07;99620.63;;;-2.80;79.28
64080;BME280;51042;49.696;10.808;2023-01-29T00:43:52;99617.97;;;-2.89;79.21
64080;BME280;51042;49.696;10.808;2023-01-29T00:46:35;99614.81;;;-2.91;78.76
64080;BME280;51042;49.696;10.808;2023-01-29T00:49:01;99611.47;;;-2.96;78.76
64080;BME280;51042;49.696;10.808;2023-01-29T00:51:26;99608.50;;;-2.95;79.18
64080;BME280;51042;49.696;10.808;2023-01-29T00:53:51;99607.09;;;-2.92;79.34
64080;BME280;51042;49.696;10.808;2023-01-29T00:56:18;99615.16;;;-2.92;79.04
64080;BME280;51042;49.696;10.808;2023-01-29T00:58:43;99614.81;;;-2.91;79.12
64080;BME280;51042;49.696;10.808;2023-01-29T01:01:08;99617.31;;;-2.85;79.05
64080;BME280;51042;49.696;10.808;2023-01-29T01:03:34;99617.50;;;-2.82;79.17
64080;BME280;51042;49.696;10.808;2023-01-29T01:06:06;99607.22;;;-2.80;79.26
64080;BME280;51042;49.696;10.808;2023-01-29T01:08:32;99600.56;;;-2.74;80.00
64080;BME280;51042;49.696;10.808;2023-01-29T01:11:15;99590.47;;;-2.68;79.71
64080;BME280;51042;49.696;10.808;2023-01-29T01:13:41;99587.94;;;-2.65;79.44
64080;BME280;51042;49.696;10.808;2023-01-29T01:16:13;99588.41;;;-2.63;79.70
64080;BME280;51042;49.696;10.808;2023-01-29T01:18:38;99604.38;;;-2.58;80.02
64080;BME280;51042;49.696;10.808;2023-01-29T01:21:03;99595.84;;;-2.60;78.70
64080;BME280;51042;49.696;10.808;2023-01-29T01:23:29;99601.50;;;-2.61;78.28
64080;BME280;51042;49.696;10.808;2023-01-29T01:25:54;99601.50;;;-2.61;78.61
64080;BME280;51042;49.696;10.808;2023-01-29T01:28:19;99606.75;;;-2.65;78.47
64080;BME280;51042;49.696;10.808;2023-01-29T01:30:45;99620.78;;;-2.68;77.94
64080;BME280;51042;49.696;10.808;2023-01-29T01:33:10;99617.34;;;-2.68;78.83
64080;BME280;51042;49.696;10.808;2023-01-29T01:35:37;99614.31;;;-2.67;78.99
64080;BME280;51042;49.696;10.808;2023-01-29T01:38:02;99610.72;;;-2.62;80.24
64080;BME280;51042;49.696;10.808;2023-01-29T01:40:27;99610.69;;;-2.54;79.45
64080;BME280;51042;49.696;10.808;2023-01-29T01:42:54;99605.78;;;-2.60;78.00
64080;BME280;51042;49.696;10.808;2023-01-29T01:47:50;99607.69;;;-2.78;78.52
64080;BME280;51042;49.696;10.808;2023-01-29T01:50:23;99603.75;;;-2.89;78.94
64080;BME280;51042;49.696;10.808;2023-01-29T01:52:51;99606.44;;;-2.98;79.67
64080;BME280;51042;49.696;10.808;2023-01-29T01:55:18;99609.44;;;-2.99;80.06
64080;BME280;51042;49.696;10.808;2023-01-29T01:57:46;99606.75;;;-2.99;79.71
64080;BME280;51042;49.696;10.808;2023-01-29T02:00:13;99599.31;;;-3.02;79.94
64080;BME280;51042;49.696;10.808;2023-01-29T02:02:40;99606.28;;;-3.01;79.87
64080;BME280;51042;49.696;10.808;2023-01-29T02:05:25;99598.53;;;-2.94;80.23
64080;BME280;51042;49.696;10.808;2023-01-29T02:08:09;99600.91;;;-2.93;79.06
64080;BME280;51042;49.696;10.808;2023-01-29T02:10:54;99604.72;;;-2.94;79.21
64080;BME280;51042;49.696;10.808;2023-01-29T02:13:20;99606.13;;;-2.96;79.33
64080;BME280;51042;49.696;10.808;2023-01-29T02:15:45;99594.13;;;-2.99;79.53
64080;BME280;51042;49.696;10.808;2023-01-29T02:18:16;99587.00;;;-3.03;79.69
64080;BME280;51042;49.696;10.808;2023-01-29T02:20:44;99584.81;;;-3.01;79.99
64080;BME280;51042;49.696;10.808;2023-01-29T02:31:07;99584.50;;;-3.00;80.06
64080;BME280;51042;49.696;10.808;2023-01-29T02:36:13;99595.53;;;-3.01;79.80
64080;BME280;51042;49.696;10.808;2023-01-29T02:38:59;99587.00;;;-3.03;80.47
64080;BME280;51042;49.696;10.808;2023-01-29T02:41:34;99596.81;;;-3.07;79.98
64080;BME280;51042;49.696;10.808;2023-01-29T02:46:43;99592.25;;;-2.98;80.28
64080;BME280;51042;49.696;10.808;2023-01-29T02:54:19;99581.47;;;-2.90;80.74
64080;BME280;51042;49.696;10.808;2023-01-29T02:59:12;99580.84;;;-2.78;80.60
64080;BME280;51042;49.696;10.808;2023-01-29T03:02:01;99580.06;;;-2.70;80.94
64080;BME280;51042;49.696;10.808;2023-01-29T03:04:30;99581.94;;;-2.70;79.53
64080;BME280;51042;49.696;10.808;2023-01-29T03:07:01;99578.59;;;-2.67;80.11
64080;BME280;51042;49.696;10.808;2023-01-29T03:09:35;99591.25;;;-2.68;80.08
64080;BME280;51042;49.696;10.808;2023-01-29T03:12:07;99587.81;;;-2.68;79.45
64080;BME280;51042;49.696;10.808;2023-01-29T03:14:42;99597.91;;;-2.65;79.83
64080;BME280;51042;49.696;10.808;2023-01-29T03:17:31;99589.53;;;-2.64;79.89
64080;BME280;51042;49.696;10.808;2023-01-29T03:19:58;99586.53;;;-2.62;78.82
64080;BME280;51042;49.696;10.808;2023-01-29T03:22:23;99593.00;;;-2.63;78.59
64080;BME280;51042;49.696;10.808;2023-01-29T03:24:51;99590.16;;;-2.67;78.65
64080;BME280;51042;49.696;10.808;2023-01-29T03:27:53;99596.78;;;-2.73;78.10
64080;BME280;51042;49.696;10.808;2023-01-29T03:30:42;99589.53;;;-2.81;78.73
64080;BME280;51042;49.696;10.808;2023-01-29T03:33:28;99600.75;;;-2.88;79.34
64080;BME280;51042;49.696;10.808;2023-01-29T03:36:00;99597.09;;;-2.92;79.57
64080;BME280;51042;49.696;10.808;2023-01-29T03:38:30;99598.84;;;-2.96;79.34
64080;BME280;51042;49.696;10.808;2023-01-29T03:41:06;99593.78;;;-2.97;79.20
64080;BME280;51042;49.696;10.808;2023-01-29T03:43:38;99605.50;;;-2.93;79.28
64080;BME280;51042;49.696;10.808;2023-01-29T03:49:01;99603.44;;;-2.79;79.38
64080;BME280;51042;49.696;10.808;2023-01-29T03:54:12;99617.19;;;-2.72;79.66
64080;BME280;51042;49.696;10.808;2023-01-29T03:59:14;99619.53;;;-2.62;80.48
64080;BME280;51042;49.696;10.808;2023-01-29T04:04:35;99621.91;;;-2.60;78.68
64080;BME280;51042;49.696;10.808;2023-01-29T04:07:09;99619.22;;;-2.60;79.25
64080;BME280;51042;49.696;10.808;2023-01-29T04:10:21;99621.28;;;-2.57;78.98
64080;BME280;51042;49.696;10.808;2023-01-29T04:12:23;99606.56;;;-2.60;78.35
64080;BME280;51042;49.696;10.808;2023-01-29T04:14:50;99614.00;;;-2.74;79.20
64080;BME280;51042;49.696;10.808;2023-01-29T04:17:18;99614.34;;;-2.84;79.47
64080;BME280;51042;49.696;10.808;2023-01-29T04:19:44;99619.41;;;-2.82;80.26
64080;BME280;51042;49.696;10.808;2023-01-29T04:22:14;99629.19;;;-2.78;79.71
64080;BME280;51042;49.696;10.808;2023-01-29T04:24:41;99625.72;;;-2.78;78.47
64080;BME280;51042;49.696;10.808;2023-01-29T04:27:25;99620.97;;;-2.81;78.53
64080;BME280;51042;49.696;10.808;2023-01-29T04:32:27;99620.50;;;-2.75;78.62
64080;BME280;51042;49.696;10.808;2023-01-29T04:40:47;99612.09;;;-2.56;79.21
64080;BME280;51042;49.696;10.808;2023-01-29T04:43:18;99605.44;;;-2.50;79.89
64080;BME280;51042;49.696;10.808;2023-01-29T04:51:07;99604.22;;;-2.70;78.48
64080;BME280;51042;49.696;10.808;2023-01-29T04:53:36;99598.38;;;-2.72;78.96
64080;BME280;51042;49.696;10.808;2023-01-29T04:58:43;99601.22;;;-2.68;79.29
64080;BME280;51042;49.696;10.808;2023-01-29T05:01:12;99597.91;;;-2.65;79.57
64080;BME280;51042;49.696;10.808;2023-01-29T05:03:38;99594.59;;;-2.71;79.24
64080;BME280;51042;49.696;10.808;2023-01-29T05:06:04;99595.84;;;-2.68;79.75
64080;BME280;51042;49.696;10.808;2023-01-29T05:08:31;99596.78;;;-2.64;80.06
64080;BME280;51042;49.696;10.808;2023-01-29T05:10:57;99589.81;;;-2.74;80.16
64080;BME280;51042;49.696;10.808;2023-01-29T05:13:23;99570.72;;;-2.72;79.99
64080;BME280;51042;49.696;10.808;2023-01-29T05:15:54;99570.41;;;-2.71;79.43
64080;BME280;51042;49.696;10.808;2023-01-29T05:18:20;99566.31;;;-2.68;79.69
64080;BME280;51042;49.696;10.808;2023-01-29T05:20:45;99557.44;;;-2.60;80.40
64080;BME280;51042;49.696;10.808;2023-01-29T05:23:18;99563.28;;;-2.58;79.58
64080;BME280;51042;49.696;10.808;2023-01-29T05:25:43;99557.59;;;-2.57;79.47
64080;BME280;51042;49.696;10.808;2023-01-29T05:28:09;99552.22;;;-2.74;77.67
64080;BME280;51042;49.696;10.808;2023-01-29T05:30:51;99538.97;;;-2.79;79.17
64080;BME280;51042;49.696;10.808;2023-01-29T05:33:17;99533.31;;;-2.86;78.39
64080;BME280;51042;49.696;10.808;2023-01-29T05:35:43;99532.19;;;-2.85;79.31
64080;BME280;51042;49.696;10.808;2023-01-29T05:38:08;99539.75;;;-2.78;80.24
64080;BME280;51042;49.696;10.808;2023-01-29T05:40:33;99543.06;;;-2.73;79.52
64080;BME280;51042;49.696;10.808;2023-01-29T05:42:59;99540.84;;;-2.71;79.98
64080;BME280;51042;49.696;10.808;2023-01-29T05:45:25;99547.81;;;-2.70;79.37
64080;BME280;51042;49.696;10.808;2023-01-29T05:47:50;99546.72;;;-2.69;79.35
64080;BME280;51042;49.696;10.808;2023-01-29T05:50:19;99554.16;;;-2.74;79.73
64080;BME280;51042;49.696;10.808;2023-01-29T05:52:44;99548.13;;;-2.71;79.85
64080;BME280;51042;49.696;10.808;2023-01-29T05:55:09;99551.13;;;-2.73;80.04
64080;BME280;51042;49.696;10.808;2023-01-29T05:57:34;99560.75;;;-2.72;79.73
64080;BME280;51042;49.696;10.808;2023-01-29T06:00:00;99559.97;;;-2.72;79.25
64080;BME280;51042;49.696;10.808;2023-01-29T06:02:27;99562.34;;;-2.71;80.02
64080;BME280;51042;49.696;10.808;2023-01-29T06:04:53;99552.41;;;-2.70;80.07
64080;BME280;51042;49.696;10.808;2023-01-29T06:07:18;99551.47;;;-2.74;80.05
64080;BME280;51042;49.696;10.808;2023-01-29T06:09:43;99560.00;;;-2.81;79.41
64080;BME280;51042;49.696;10.808;2023-01-29T06:12:08;99565.81;;;-2.79;80.86
64080;BME280;51042;49.696;10.808;2023-01-29T06:14:33;99578.47;;;-2.79;79.58
64080;BME280;51042;49.696;10.808;2023-01-29T06:16:59;99575.47;;;-2.69;79.57
64080;BME280;51042;49.696;10.808;2023-01-29T06:19:24;99566.59;;;-2.61;80.02
64080;BME280;51042;49.696;10.808;2023-01-29T06:21:49;99561.53;;;-2.54;80.00
64080;BME280;51042;49.696;10.808;2023-01-29T06:24:14;99578.16;;;-2.69;79.34
64080;BME280;51042;49.696;10.808;2023-01-29T06:26:39;99581.47;;;-2.72;78.65
64080;BME280;51042;49.696;10.808;2023-01-29T06:29:04;99580.50;;;-2.68;79.94
64080;BME280;51042;49.696;10.808;2023-01-29T06:31:30;99582.53;;;-2.56;79.77
64080;BME280;51042;49.696;10.808;2023-01-29T06:33:55;99590.13;;;-2.50;79.42
64080;BME280;51042;49.696;10.808;2023-01-29T06:36:21;99586.19;;;-2.52;78.91
64080;BME280;51042;49.696;10.808;2023-01-29T06:38:46;99589.66;;;-2.52;78.70
64080;BME280;51042;49.696;10.808;2023-01-29T06:41:12;99586.19;;;-2.61;78.11
64080;BME280;51042;49.696;10.808;2023-01-29T06:43:38;99577.19;;;-2.65;79.04
64080;BME280;51042;49.696;10.808;2023-01-29T06:46:05;99585.41;;;-2.61;79.46
64080;BME280;51042;49.696;10.808;2023-01-29T06:48:30;99584.47;;;-2.57;79.35
64080;BME280;51042;49.696;10.808;2023-01-29T06:50:59;99585.56;;;-2.58;78.63
64080;BME280;51042;49.696;10.808;2023-01-29T06:53:25;99581.28;;;-2.59;79.02
64080;BME280;51042;49.696;10.808;2023-01-29T06:55:50;99583.31;;;-2.56;79.29
64080;BME280;51042;49.696;10.808;2023-01-29T06:58:15;99580.97;;;-2.57;78.78
64080;BME280;51042;49.696;10.808;2023-01-29T07:00:41;99578.91;;;-2.52;79.19
64080;BME280;51042;49.696;10.808;2023-01-29T07:03:07;99577.03;;;-2.51;79.00
64080;BME280;51042;49.696;10.808;2023-01-29T07:05:33;99579.22;;;-2.44;79.27
64080;BME280;51042;49.696;10.808;2023-01-29T07:07:58;99575.56;;;-2.40;79.21
64080;BME280;51042;49.696;10.808;2023-01-29T07:10:23;99585.34;;;-2.35;79.07
64080;BME280;51042;49.696;10.808;2023-01-29T07:12:48;99579.19;;;-2.36;78.90
64080;BME280;51042;49.696;10.808;2023-01-29T07:15:13;99577.78;;;-2.33;79.55
64080;BME280;51042;49.696;10.808;2023-01-29T07:17:43;99572.06;;;-2.32;79.12
64080;BME280;51042;49.696;10.808;2023-01-29T07:20:08;99576.31;;;-2.31;79.21
64080;BME280;51042;49.696;10.808;2023-01-29T07:22:34;99582.66;;;-2.27;79.16
64080;BME280;51042;49.696;10.808;2023-01-29T07:24:59;99582.66;;;-2.27;79.17
64080;BME280;51042;49.696;10.808;2023-01-29T07:27:24;99577.53;;;-2.20;79.27
64080;BME280;51042;49.696;10.808;2023-01-29T07:29:49;99586.22;;;-2.14;78.83
64080;BME280;51042;49.696;10.808;2023-01-29T07:32:15;99594.47;;;-2.19;78.31
64080;BME280;51042;49.696;10.808;2023-01-29T07:34:40;99598.44;;;-2.17;79.32
64080;BME280;51042;49.696;10.808;2023-01-29T07:37:05;99603.81;;;-2.17;79.03
64080;BME280;51042;49.696;10.808;2023-01-29T07:39:31;99607.59;;;-2.18;79.16
64080;BME280;51042;49.696;10.808;2023-01-29T07:41:56;99605.72;;;-2.26;78.46
64080;BME280;51042;49.696;10.808;2023-01-29T07:44:21;99608.75;;;-2.27;79.07
64080;BME280;51042;49.696;10.808;2023-01-29T07:46:46;99619.19;;;-2.34;78.52
64080;BME280;51042;49.696;10.808;2023-01-29T07:49:11;99619.06;;;-2.47;79.10
64080;BME280;51042;49.696;10.808;2023-01-29T07:51:37;99614.50;;;-2.63;79.37
64080;BME280;51042;49.696;10.808;2023-01-29T07:54:02;99613.22;;;-2.57;79.75
64080;BME280;51042;49.696;10.808;2023-01-29T07:56:27;99618.88;;;-2.50;79.20
64080;BME280;51042;49.696;10.808;2023-01-29T07:58:52;99613.81;;;-2.43;79.80
64080;BME280;51042;49.696;10.808;2023-01-29T08:01:17;99613.34;;;-2.36;79.38
64080;BME280;51042;49.696;10.808;2023-01-29T08:03:43;99609.06;;;-2.29;78.74
64080;BME280;51042;49.696;10.808;2023-01-29T08:06:09;99603.50;;;-2.32;78.48
64080;BME280;51042;49.696;10.808;2023-01-29T08:08:34;99607.16;;;-2.28;79.16
64080;BME280;51042;49.696;10.808;2023-01-29T08:11:00;99610.00;;;-2.25;78.53
64080;BME280;51042;49.696;10.808;2023-01-29T08:13:25;99603.63;;;-2.20;78.41
64080;BME280;51042;49.696;10.808;2023-01-29T08:15:50;99596.22;;;-2.15;78.06
64080;BME280;51042;49.696;10.808;2023-01-29T08:18:15;99599.19;;;-2.08;77.66
64080;BME280;51042;49.696;10.808;2023-01-29T08:20:41;99607.38;;;-1.95;77.52
64080;BME280;51042;49.696;10.808;2023-01-29T08:23:12;99610.41;;;-1.97;76.67
64080;BME280;51042;49.696;10.808;2023-01-29T08:25:38;99617.00;;;-1.94;77.19
64080;BME280;51042;49.696;10.808;2023-01-29T08:28:03;99624.09;;;-1.81;76.23
64080;BME280;51042;49.696;10.808;2023-01-29T08:30:29;99636.19;;;-1.67;76.30
64080;BME280;51042;49.696;10.808;2023-01-29T08:32:55;99619.09;;;-1.62;75.29
64080;BME280;51042;49.696;10.808;2023-01-29T08:35:20;99623.59;;;-1.45;75.02
64080;BME280;51042;49.696;10.808;2023-01-29T08:37:52;99623.81;;;-1.30;74.24
64080;BME280;51042;49.696;10.808;2023-01-29T08:40:18;99628.97;;;-1.16;73.03
64080;BME280;51042;49.696;10.808;2023-01-29T08:42:43;99650.09;;;-1.27;73.51
64080;BME280;51042;49.696;10.808;2023-01-29T08:45:08;99648.56;;;-1.36;73.23
64080;BME280;51042;49.696;10.808;2023-01-29T08:47:33;99647.63;;;-1.40;73.09
64080;BME280;51042;49.696;10.808;2023-01-29T08:49:58;99656.50;;;-1.40;73.43
64080;BME280;51042;49.696;10.808;2023-01-29T08:52:24;99664.41;;;-1.35;73.67
64080;BME280;51042;49.696;10.808;2023-01-29T08:54:49;99663.00;;;-1.41;73.60
64080;BME280;51042;49.696;10.808;2023-01-29T08:57:14;99659.69;;;-1.38;73.05
64080;BME280;51042;49.696;10.808;2023-01-29T08:59:39;99656.19;;;-1.38;73.03
64080;BME280;51042;49.696;10.808;2023-01-29T09:02:04;99647.03;;;-1.46;72.13
64080;BME280;51042;49.696;10.808;2023-01-29T09:04:30;99653.63;;;-1.35;72.43
64080;BME280;51042;49.696;10.808;2023-01-29T09:06:55;99653.94;;;-1.36;72.39
64080;BME280;51042;49.696;10.808;2023-01-29T09:09:20;99652.53;;;-1.34;72.49
64080;BME280;51042;49.696;10.808;2023-01-29T09:11:45;99654.94;;;-1.41;72.66
64080;BME280;51042;49.696;10.808;2023-01-29T09:14:11;99656.00;;;-1.62;72.46
64080;BME280;51042;49.696;10.808;2023-01-29T09:16:38;99654.91;;;-1.70;74.50
64080;BME280;51042;49.696;10.808;2023-01-29T09:19:03;99646.81;;;-1.61;73.95
64080;BME280;51042;49.696;10.808;2023-01-29T09:21:28;99643.91;;;-1.86;71.98
64080;BME280;51042;49.696;10.808;2023-01-29T09:23:53;99648.31;;;-1.81;73.74
64080;BME280;51042;49.696;10.808;2023-01-29T09:26:19;99637.78;;;-1.66;73.15
64080;BME280;51042;49.696;10.808;2023-01-29T09:28:44;99636.41;;;-1.42;72.40
64080;BME280;51042;49.696;10.808;2023-01-29T09:31:09;99628.06;;;-1.20;71.94
64080;BME280;51042;49.696;10.808;2023-01-29T09:33:34;99615.84;;;-0.97;70.88
64080;BME280;51042;49.696;10.808;2023-01-29T09:36:01;99609.38;;;-0.63;70.35
64080;BME280;51042;49.696;10.808;2023-01-29T09:38:26;99594.25;;;-0.55;69.63
64080;BME280;51042;49.696;10.808;2023-01-29T09:40:57;99590.38;;;-0.33;69.50
64080;BME280;51042;49.696;10.808;2023-01-29T09:43:34;99586.00;;;-0.38;69.32
64080;BME280;51042;49.696;10.808;2023-01-29T09:46:48;99584.16;;;-0.46;68.93
64080;BME280;51042;49.696;10.808;2023-01-29T09:48:51;99583.38;;;-0.47;69.25
64080;BME280;51042;49.696;10.808;2023-01-29T09:51:26;99593.44;;;-0.23;68.70
64080;BME280;51042;49.696;10.808;2023-01-29T09:54:05;99596.44;;;0.09;66.93
64080;BME280;51042;49.696;10.808;2023-01-29T09:56:32;99606.13;;;0.34;67.18
64080;BME280;51042;49.696;10.808;2023-01-29T09:58:59;99622.97;;;0.67;65.26
64080;BME280;51042;49.696;10.808;2023-01-29T10:01:31;99621.34;;;1.03;64.83
64080;BME280;51042;49.696;10.808;2023-01-29T10:06:53;99622.50;;;0.90;63.79
64080;BME280;51042;49.696;10.808;2023-01-29T10:17:55;99636.13;;;-0.58;68.73
64080;BME280;51042;49.696;10.808;2023-01-29T10:20:09;99649.88;;;-0.71;67.89
64080;BME280;51042;49.696;10.808;2023-01-29T10:22:43;99665.03;;;-0.46;69.30
64080;BME280;51042;49.696;10.808;2023-01-29T10:25:13;99655.31;;;-0.38;68.57
64080;BME280;51042;49.696;10.808;2023-01-29T10:27:40;99653.56;;;-0.22;68.58
64080;BME280;51042;49.696;10.808;2023-01-29T10:32:46;99636.22;;;-0.33;69.36
64080;BME280;51042;49.696;10.808;2023-01-29T10:35:16;99630.28;;;-0.27;67.66
64080;BME280;51042;49.696;10.808;2023-01-29T10:37:42;99621.47;;;-0.48;68.10
64080;BME280;51042;49.696;10.808;2023-01-29T10:42:49;99610.59;;;-0.39;69.51
64080;BME280;51042;49.696;10.808;2023-01-29T10:45:25;99601.88;;;-0.24;68.48
64080;BME280;51042;49.696;10.808;2023-01-29T10:50:44;99580.78;;;-0.10;68.44
64080;BME280;51042;49.696;10.808;2023-01-29T10:53:15;99579.31;;;-0.08;69.00
64080;BME280;51042;49.696;10.808;2023-01-29T10:58:33;99573.84;;;-0.44;68.78
64080;BME280;51042;49.696;10.808;2023-01-29T11:01:00;99570.94;;;-0.39;69.13
64080;BME280;51042;49.696;10.808;2023-01-29T11:06:00;99577.25;;;-0.23;68.38
64080;BME280;51042;49.696;10.808;2023-01-29T11:08:28;99561.09;;;-0.11;68.17
64080;BME280;51042;49.696;10.808;2023-01-29T11:13:44;99549.09;;;-0.01;67.64
64080;BME280;51042;49.696;10.808;2023-01-29T11:16:11;99552.78;;;0.19;67.36
64080;BME280;51042;49.696;10.808;2023-01-29T11:18:53;99547.06;;;0.45;66.94
64080;BME280;51042;49.696;10.808;2023-01-29T11:21:18;99541.19;;;0.55;66.68
64080;BME280;51042;49.696;10.808;2023-01-29T11:23:43;99537.72;;;-0.19;67.89
64080;BME280;51042;49.696;10.808;2023-01-29T11:26:11;99537.38;;;-0.17;66.93
64080;BME280;51042;49.696;10.808;2023-01-29T11:31:01;99515.91;;;0.47;66.93
64080;BME280;51042;49.696;10.808;2023-01-29T11:33:27;99508.16;;;0.73;65.72
64080;BME280;51042;49.696;10.808;2023-01-29T11:35:52;99499.69;;;0.87;65.72
64080;BME280;51042;49.696;10.808;2023-01-29T11:38:21;99495.63;;;0.93;65.57
64080;BME280;51042;49.696;10.808;2023-01-29T11:40:47;99483.88;;;1.01;63.96
64080;BME280;51042;49.696;10.808;2023-01-29T11:43:33;99478.44;;;0.46;65.55
64080;BME280;51042;49.696;10.808;2023-01-29T11:46:01;99480.94;;;0.66;66.56
64080;BME280;51042;49.696;10.808;2023-01-29T11:48:40;99480.25;;;0.81;65.40
64080;BME280;51042;49.696;10.808;2023-01-29T11:51:06;99474.63;;;0.74;66.05
64080;BME280;51042;49.696;10.808;2023-01-29T11:55:59;99468.31;;;0.82;65.80
64080;BME280;51042;49.696;10.808;2023-01-29T11:58:26;99460.34;;;0.74;65.69
64080;BME280;51042;49.696;10.808;2023-01-29T12:00:52;99454.84;;;0.70;65.66
64080;BME280;51042;49.696;10.808;2023-01-29T12:06:06;99460.66;;;0.72;66.16
64080;BME280;51042;49.696;10.808;2023-01-29T12:08:34;99450.59;;;0.57;65.95
64080;BME280;51042;49.696;10.808;2023-01-29T12:11:34;99451.22;;;0.38;67.01
64080;BME280;51042;49.696;10.808;2023-01-29T12:13:56;99446.94;;;0.37;66.93
64080;BME280;51042;49.696;10.808;2023-01-29T12:19:24;99444.88;;;0.87;66.19
64080;BME280;51042;49.696;10.808;2023-01-29T12:21:57;99447.34;;;1.07;66.14
64080;BME280;51042;49.696;10.808;2023-01-29T12:27:03;99438.50;;;1.54;63.04
64080;BME280;51042;49.696;10.808;2023-01-29T12:32:31;99425.97;;;1.02;64.58
64080;BME280;51042;49.696;10.808;2023-01-29T12:35:02;99419.91;;;1.21;65.38
64080;BME280;51042;49.696;10.808;2023-01-29T12:39:58;99410.66;;;1.06;63.54
64080;BME280;51042;49.696;10.808;2023-01-29T12:42:24;99408.56;;;1.15;64.56
64080;BME280;51042;49.696;10.808;2023-01-29T12:44:51;99408.03;;;1.57;64.62
64080;BME280;51042;49.696;10.808;2023-01-29T12:47:26;99398.34;;;1.72;63.29
64080;BME280;51042;49.696;10.808;2023-01-29T12:49:54;99394.72;;;1.48;63.43
64080;BME280;51042;49.696;10.808;2023-01-29T12:52:36;99393.22;;;1.51;63.19
64080;BME280;51042;49.696;10.808;2023-01-29T12:55:10;99384.13;;;1.43;63.63
64080;BME280;51042;49.696;10.808;2023-01-29T12:57:43;99382.66;;;1.14;64.29
64080;BME280;51042;49.696;10.808;2023-01-29T13:00:14;99383.63;;;1.38;64.46
64080;BME280;51042;49.696;10.808;2023-01-29T13:02:53;99371.41;;;1.59;63.82
64080;BME280;51042;49.696;10.808;2023-01-29T13:05:23;99370.38;;;1.48;64.21
64080;BME280;51042;49.696;10.808;2023-01-29T13:07:57;99373.00;;;1.29;64.99
64080;BME280;51042;49.696;10.808;2023-01-29T13:10:31;99380.94;;;1.06;65.89
64080;BME280;51042;49.696;10.808;2023-01-29T13:13:06;99371.13;;;0.86;66.38
64080;BME280;51042;49.696;10.808;2023-01-29T13:15:37;99379.81;;;0.64;66.92
64080;BME280;51042;49.696;10.808;2023-01-29T13:18:13;99374.34;;;0.48;67.43
64080;BME280;51042;49.696;10.808;2023-01-29T13:20:42;99377.53;;;0.38;67.58
64080;BME280;51042;49.696;10.808;2023-01-29T13:23:14;99359.88;;;0.40;68.02
64080;BME280;51042;49.696;10.808;2023-01-29T13:25:41;99356.47;;;0.16;68.02
64080;BME280;51042;49.696;10.808;2023-01-29T13:28:14;99362.19;;;-0.14;68.57
64080;BME280;51042;49.696;10.808;2023-01-29T13:30:40;99356.47;;;-0.24;69.58
64080;BME280;51042;49.696;10.808;2023-01-29T13:33:05;99357.91;;;-0.15;69.16
64080;BME280;51042;49.696;10.808;2023-01-29T13:35:34;99355.63;;;-0.01;68.13
64080;BME280;51042;49.696;10.808;2023-01-29T13:38:00;99364.00;;;0.22;68.30
64080;BME280;51042;49.696;10.808;2023-01-29T13:40:26;99367.19;;;0.40;67.49
64080;BME280;51042;49.696;10.808;2023-01-29T13:42:52;99365.72;;;0.43;67.39
64080;BME280;51042;49.696;10.808;2023-01-29T13:45:19;99371.59;;;0.60;67.50
64080;BME280;51042;49.696;10.808;2023-01-29T13:47:45;99372.13;;;0.66;66.82
64080;BME280;51042;49.696;10.808;2023-01-29T13:50:24;99359.88;;;0.84;66.96
64080;BME280;51042;49.696;10.808;2023-01-29T13:52:54;99370.94;;;0.79;66.62
64080;BME280;51042;49.696;10.808;2023-01-29T13:55:21;99374.81;;;0.94;66.18
64080;BME280;51042;49.696;10.808;2023-01-29T13:57:50;99373.44;;;0.72;66.89
64080;BME280;51042;49.696;10.808;2023-01-29T14:02:44;99365.50;;;0.08;68.85
64080;BME280;51042;49.696;10.808;2023-01-29T14:07:53;99360.78;;;0.05;69.81
64080;BME280;51042;49.696;10.808;2023-01-29T14:10:19;99362.09;;;0.23;69.47
64080;BME280;51042;49.696;10.808;2023-01-29T14:12:45;99361.06;;;0.27;68.90
64080;BME280;51042;49.696;10.808;2023-01-29T14:15:17;99357.84;;;0.37;68.69
64080;BME280;51042;49.696;10.808;2023-01-29T14:20:31;99358.47;;;0.74;68.18
64080;BME280;51042;49.696;10.808;2023-01-29T14:22:56;99342.03;;;0.95;67.32
64080;BME280;51042;49.696;10.808;2023-01-29T14:25:27;99341.50;;;0.90;68.04
64080;BME280;51042;49.696;10.808;2023-01-29T14:27:54;99343.41;;;0.73;68.24
64080;BME280;51042;49.696;10.808;2023-01-29T14:30:19;99346.41;;;0.56;69.37
64080;BME280;51042;49.696;10.808;2023-01-29T14:32:46;99340.38;;;0.19;69.94
64080;BME280;51042;49.696;10.808;2023-01-29T14:35:19;99339.53;;;0.03;70.32
64080;BME280;51042;49.696;10.808;2023-01-29T14:37:48;99322.09;;;0.00;70.96
64080;BME280;51042;49.696;10.808;2023-01-29T14:40:19;99320.69;;;-0.09;71.14
64080;BME280;51042;49.696;10.808;2023-01-29T14:55:34;99310.25;;;-0.23;72.95
64080;BME280;51042;49.696;10.808;2023-01-29T14:58:01;99310.28;;;-0.35;72.36